createdAt,value
2019-01-26T00:00:36.971Z,-0.60
2019-01-26T00:03:08.594Z,-0.60
2019-01-26T00:05:38.046Z,-0.60
2019-01-26T00:08:10.403Z,-0.60
2019-01-26T00:10:39.906Z,-0.50
2019-01-26T00:13:09.324Z,-0.50
2019-01-26T00:15:38.802Z,-0.50
2019-01-26T00:18:08.202Z,-0.50
2019-01-26T00:20:40.093Z,-0.50
2019-01-26T00:23:09.667Z,-0.50
2019-01-26T00:25:38.743Z,-0.40
2019-01-26T00:28:08.516Z,-0.40
2019-01-26T00:30:37.937Z,-0.40
2019-01-26T00:33:14.254Z,-0.40
2019-01-26T00:35:43.299Z,-0.40
2019-01-26T00:38:13.214Z,-0.40
2019-01-26T00:40:44.740Z,-0.30
2019-01-26T00:43:14.115Z,-0.30
2019-01-26T00:45:43.530Z,-0.30
2019-01-26T00:48:12.691Z,-0.30
2019-01-26T00:51:02.826Z,-0.30
2019-01-26T00:53:33.583Z,-0.30
2019-01-26T00:56:07.767Z,-0.30
2019-01-26T00:58:41.620Z,-0.30
2019-01-26T01:01:17.336Z,-0.30
2019-01-26T01:03:49.898Z,-0.20
2019-01-26T01:06:19.072Z,-0.20
2019-01-26T01:08:49.583Z,-0.20
2019-01-26T01:11:19.617Z,-0.20
2019-01-26T01:13:48.807Z,-0.10
2019-01-26T01:16:21.614Z,-0.10
2019-01-26T01:18:51.339Z,-0.10
2019-01-26T01:21:20.447Z,-0.10
2019-01-26T01:23:49.558Z,0.00
2019-01-26T01:26:18.677Z,0.00
2019-01-26T01:28:47.699Z,0.00
2019-01-26T01:31:18.726Z,0.10
2019-01-26T01:33:47.809Z,0.10
2019-01-26T01:36:17.547Z,0.20
2019-01-26T01:38:47.735Z,0.10
2019-01-26T01:41:19.744Z,0.20
2019-01-26T01:43:49.233Z,0.20
2019-01-26T01:46:19.815Z,0.20
2019-01-26T01:48:48.968Z,0.30
2019-01-26T01:51:20.361Z,0.30
2019-01-26T01:53:50.658Z,0.30
2019-01-26T01:56:19.889Z,0.30
2019-01-26T01:58:49.143Z,0.40
2019-01-26T02:01:18.445Z,0.40
2019-01-26T02:03:47.474Z,0.40
2019-01-26T02:06:16.922Z,0.40
2019-01-26T02:08:48.637Z,0.40
2019-01-26T02:11:24.615Z,0.40
2019-01-26T02:14:01.468Z,0.50
2019-01-26T02:16:33.934Z,0.50
2019-01-26T02:19:06.039Z,0.50
2019-01-26T02:21:40.204Z,0.50
2019-01-26T02:24:12.838Z,0.50
2019-01-26T02:26:42.661Z,0.50
2019-01-26T02:29:12.564Z,0.50
2019-01-26T02:31:42.681Z,0.50
2019-01-26T02:34:13.360Z,0.50
2019-01-26T02:36:43.444Z,0.50
2019-01-26T02:39:14.145Z,0.60
2019-01-26T02:41:45.371Z,0.60
2019-01-26T02:44:20.052Z,0.60
2019-01-26T02:46:57.807Z,0.60
2019-01-26T02:49:24.168Z,0.60
2019-01-26T02:51:55.180Z,0.60
2019-01-26T02:54:29.593Z,0.60
2019-01-26T02:57:00.612Z,0.60
2019-01-26T02:59:30.580Z,0.60
2019-01-26T03:01:59.723Z,0.60
2019-01-26T03:04:28.822Z,0.70
2019-01-26T03:06:58.922Z,0.70
2019-01-26T03:09:29.480Z,0.70
2019-01-26T03:11:58.752Z,0.70
2019-01-26T03:14:27.859Z,0.70
2019-01-26T03:17:05.331Z,0.70
2019-01-26T03:19:28.841Z,0.70
2019-01-26T03:22:01.471Z,0.70
2019-01-26T03:24:37.880Z,0.70
2019-01-26T03:27:13.220Z,0.80
2019-01-26T03:29:46.793Z,0.80
2019-01-26T03:32:23.643Z,0.80
2019-01-26T03:34:57.805Z,0.80
2019-01-26T03:37:29.038Z,0.80
2019-01-26T03:40:02.655Z,0.80
2019-01-26T03:42:35.120Z,0.80
2019-01-26T03:45:09.048Z,0.80
2019-01-26T03:47:46.262Z,0.90
2019-01-26T03:50:22.686Z,0.90
2019-01-26T03:52:57.465Z,0.90
2019-01-26T03:55:29.631Z,0.90
2019-01-26T03:58:04.084Z,0.90
2019-01-26T04:00:47.180Z,0.90
2019-01-26T04:03:20.418Z,1.00
2019-01-26T04:05:54.353Z,1.00
2019-01-26T04:08:26.341Z,1.00
2019-01-26T04:11:02.581Z,1.00
2019-01-26T04:13:36.275Z,1.00
2019-01-26T04:16:10.176Z,1.00
2019-01-26T04:18:43.873Z,1.10
2019-01-26T04:21:27.029Z,1.10
2019-01-26T04:24:03.272Z,1.10
2019-01-26T04:26:44.223Z,1.10
2019-01-26T04:29:26.822Z,1.10
2019-01-26T04:32:12.725Z,1.10
2019-01-26T04:34:51.409Z,1.10
2019-01-26T04:37:28.030Z,1.10
2019-01-26T04:40:00.659Z,1.10
2019-01-26T04:42:35.317Z,1.20
2019-01-26T04:45:16.760Z,1.20
2019-01-26T04:47:56.890Z,1.10
2019-01-26T04:50:28.598Z,1.20
2019-01-26T04:53:03.174Z,1.20
2019-01-26T04:55:36.330Z,1.10
2019-01-26T04:58:09.980Z,1.20
2019-01-26T05:00:43.035Z,1.20
2019-01-26T05:03:15.327Z,1.20
2019-01-26T05:05:46.324Z,1.20
2019-01-26T05:08:17.463Z,1.20
2019-01-26T05:10:48.050Z,1.20
2019-01-26T05:13:19.061Z,1.20
2019-01-26T05:15:50.870Z,1.30
2019-01-26T05:18:22.807Z,1.30
2019-01-26T05:20:54.191Z,1.30
2019-01-26T05:23:26.581Z,1.30
2019-01-26T05:26:00.671Z,1.30
2019-01-26T05:28:32.637Z,1.30
2019-01-26T05:31:03.462Z,1.30
2019-01-26T05:33:34.928Z,1.30
2019-01-26T05:36:06.770Z,1.30
2019-01-26T05:38:36.711Z,1.30
2019-01-26T05:41:10.640Z,1.30
2019-01-26T05:43:40.990Z,1.30
2019-01-26T05:46:11.079Z,1.30
2019-01-26T05:48:41.413Z,1.30
2019-01-26T05:51:11.555Z,1.30
2019-01-26T05:53:43.809Z,1.30
2019-01-26T05:56:17.424Z,1.30
2019-01-26T05:58:47.519Z,1.30
2019-01-26T06:01:18.053Z,1.30
2019-01-26T06:03:47.108Z,1.30
2019-01-26T06:06:16.156Z,1.30
2019-01-26T06:08:45.214Z,1.30
2019-01-26T06:11:14.726Z,1.30
2019-01-26T06:13:43.784Z,1.40
2019-01-26T06:16:14.182Z,1.50
2019-01-26T06:18:46.159Z,1.50
2019-01-26T06:21:18.878Z,1.50
2019-01-26T06:23:51.670Z,1.50
2019-01-26T06:26:25.582Z,1.60
2019-01-26T06:28:58.698Z,1.50
2019-01-26T06:31:30.122Z,1.50
2019-01-26T06:34:03.436Z,1.50
2019-01-26T06:36:35.670Z,1.60
2019-01-26T06:39:10.374Z,1.60
2019-01-26T06:41:46.424Z,1.60
2019-01-26T06:44:18.894Z,1.70
2019-01-26T06:46:52.427Z,1.60
2019-01-26T06:49:24.940Z,1.60
2019-01-26T06:51:55.127Z,1.70
2019-01-26T06:54:25.567Z,1.70
2019-01-26T06:57:02.690Z,1.70
2019-01-26T06:59:33.409Z,1.80
2019-01-26T07:02:02.739Z,1.80
2019-01-26T07:04:45.241Z,1.80
2019-01-26T07:07:19.132Z,1.80
2019-01-26T07:09:48.801Z,1.80
2019-01-26T07:12:18.080Z,1.80
2019-01-26T07:14:47.415Z,1.80
2019-01-26T07:17:16.839Z,1.80
2019-01-26T07:19:46.765Z,1.80
2019-01-26T07:22:39.366Z,1.80
2019-01-26T07:25:09.123Z,1.80
2019-01-26T07:27:52.726Z,1.80
2019-01-26T07:31:01.790Z,1.90
2019-01-26T07:33:36.962Z,1.90
2019-01-26T07:36:19.890Z,1.90
2019-01-26T07:39:03.609Z,1.90
2019-01-26T07:41:48.153Z,1.90
2019-01-26T07:44:25.632Z,1.90
2019-01-26T07:47:06.588Z,1.90
2019-01-26T07:49:59.444Z,1.90
2019-01-26T07:52:49.494Z,2.00
2019-01-26T07:55:27.954Z,2.00
2019-01-26T07:57:58.177Z,2.00
2019-01-26T08:00:27.567Z,2.00
2019-01-26T08:02:57.276Z,2.10
2019-01-26T08:05:26.875Z,2.10
2019-01-26T08:07:56.326Z,2.10
2019-01-26T08:10:26.163Z,2.10
2019-01-26T08:12:55.497Z,2.20
2019-01-26T08:15:28.065Z,2.20
2019-01-26T08:18:00.599Z,2.20
2019-01-26T08:20:33.884Z,2.20
2019-01-26T08:23:08.802Z,2.20
2019-01-26T08:25:44.247Z,2.30
2019-01-26T08:28:13.379Z,2.30
2019-01-26T08:30:42.965Z,2.30
2019-01-26T08:33:13.892Z,2.30
2019-01-26T08:35:44.162Z,2.30
2019-01-26T08:38:22.010Z,2.40
2019-01-26T08:40:57.123Z,2.40
2019-01-26T08:43:36.633Z,2.40
2019-01-26T08:46:14.114Z,2.40
2019-01-26T08:48:53.999Z,2.40
2019-01-26T08:51:29.396Z,2.50
2019-01-26T08:54:15.275Z,2.50
2019-01-26T08:57:16.948Z,2.40
2019-01-26T09:00:08.784Z,2.50
2019-01-26T09:03:12.048Z,2.60
2019-01-26T09:06:12.828Z,2.50
2019-01-26T09:08:51.777Z,2.50
2019-01-26T09:11:34.317Z,2.60
2019-01-26T09:14:23.650Z,2.50
2019-01-26T09:16:56.582Z,2.60
2019-01-26T09:19:28.961Z,2.60
2019-01-26T09:21:58.818Z,2.60
2019-01-26T09:24:38.134Z,2.60
2019-01-26T09:27:14.239Z,2.60
2019-01-26T09:29:53.841Z,2.60
2019-01-26T09:32:31.926Z,2.60
2019-01-26T09:35:06.723Z,2.70
2019-01-26T09:37:36.754Z,2.70
2019-01-26T09:40:07.528Z,2.80
2019-01-26T09:42:38.930Z,2.80
2019-01-26T09:45:16.090Z,2.80
2019-01-26T09:47:49.423Z,2.80
2019-01-26T09:50:21.553Z,2.80
2019-01-26T09:52:51.513Z,2.80
2019-01-26T09:55:22.450Z,2.90
2019-01-26T09:57:57.269Z,2.90
2019-01-26T10:00:29.417Z,2.90
2019-01-26T10:02:58.912Z,3.00
2019-01-26T10:05:30.907Z,3.00
2019-01-26T10:08:03.908Z,3.10
2019-01-26T10:10:41.988Z,3.10
2019-01-26T10:13:18.369Z,3.10
2019-01-26T10:15:55.769Z,3.10
2019-01-26T10:18:27.670Z,3.20
2019-01-26T10:21:03.581Z,3.20
2019-01-26T10:23:36.207Z,3.20
2019-01-26T10:26:22.529Z,3.30
2019-01-26T10:29:13.631Z,3.30
2019-01-26T10:31:50.992Z,3.30
2019-01-26T10:34:30.419Z,3.30
2019-01-26T10:37:13.582Z,3.30
2019-01-26T10:40:02.748Z,3.30
2019-01-26T10:42:47.819Z,3.40
2019-01-26T10:45:29.360Z,3.30
2019-01-26T10:48:08.483Z,3.40
2019-01-26T10:50:46.580Z,3.40
2019-01-26T10:53:27.768Z,3.50
2019-01-26T10:56:08.262Z,3.40
2019-01-26T10:58:49.199Z,3.50
2019-01-26T11:01:24.514Z,3.40
2019-01-26T11:03:59.023Z,3.40
2019-01-26T11:06:36.142Z,3.40
2019-01-26T11:09:11.589Z,3.40
2019-01-26T11:11:40.821Z,3.30
2019-01-26T11:14:10.607Z,3.30
2019-01-26T11:16:41.187Z,3.30
2019-01-26T11:19:11.580Z,3.30
2019-01-26T11:21:41.474Z,3.30
2019-01-26T11:24:12.594Z,3.30
2019-01-26T11:26:49.453Z,3.30
2019-01-26T11:29:19.891Z,3.30
2019-01-26T11:31:48.947Z,3.30
2019-01-26T11:34:18.473Z,3.30
2019-01-26T11:36:47.588Z,3.30
2019-01-26T11:39:17.275Z,3.30
2019-01-26T11:41:46.502Z,3.30
2019-01-26T11:44:17.457Z,3.30
2019-01-26T11:46:55.682Z,3.30
2019-01-26T11:49:25.127Z,3.30
2019-01-26T11:52:10.332Z,3.30
2019-01-26T11:55:15.278Z,3.30
2019-01-26T11:57:44.810Z,3.30
2019-01-26T12:00:45.633Z,3.30
2019-01-26T12:03:32.868Z,3.30
2019-01-26T12:06:09.328Z,3.40
2019-01-26T12:08:38.458Z,3.30
2019-01-26T12:11:12.305Z,3.40
2019-01-26T12:13:41.108Z,3.30
2019-01-26T12:16:10.818Z,3.30
2019-01-26T12:18:40.260Z,3.30
2019-01-26T12:21:10.116Z,3.30
2019-01-26T12:23:39.218Z,3.30
2019-01-26T12:26:08.457Z,3.30
2019-01-26T12:28:38.795Z,3.30
2019-01-26T12:31:07.866Z,3.30
2019-01-26T12:33:36.905Z,3.30
2019-01-26T12:36:06.211Z,3.30
2019-01-26T12:38:35.332Z,3.30
2019-01-26T12:41:06.454Z,3.30
2019-01-26T12:43:35.540Z,3.30
2019-01-26T12:46:05.824Z,3.30
2019-01-26T12:48:34.939Z,3.30
2019-01-26T12:51:06.356Z,3.20
2019-01-26T12:53:35.939Z,3.20
2019-01-26T12:56:10.108Z,3.20
2019-01-26T12:58:39.947Z,3.30
2019-01-26T13:01:12.399Z,3.30
2019-01-26T13:03:51.990Z,3.20
2019-01-26T13:06:36.675Z,3.20
2019-01-26T13:09:22.486Z,3.30
2019-01-26T13:12:39.963Z,3.30
2019-01-26T13:15:28.378Z,3.30
2019-01-26T13:18:14.239Z,3.30
2019-01-26T13:20:51.789Z,3.30
2019-01-26T13:23:25.717Z,3.30
2019-01-26T13:25:55.031Z,3.40
2019-01-26T13:28:43.652Z,3.30
2019-01-26T13:31:38.725Z,3.40
2019-01-26T13:34:11.540Z,3.40
2019-01-26T13:36:42.402Z,3.40
2019-01-26T13:39:13.204Z,3.40
2019-01-26T13:41:48.052Z,3.40
2019-01-26T13:44:18.617Z,3.50
2019-01-26T13:46:52.320Z,3.50
2019-01-26T13:49:29.989Z,3.50
2019-01-26T13:52:01.151Z,3.50
2019-01-26T13:54:30.155Z,3.50
2019-01-26T13:56:59.360Z,3.50
2019-01-26T13:59:28.826Z,3.50
2019-01-26T14:01:57.979Z,3.60
2019-01-26T14:04:29.422Z,3.60
2019-01-26T14:06:59.207Z,3.60
2019-01-26T14:09:33.114Z,3.60
2019-01-26T14:12:02.271Z,3.60
2019-01-26T14:14:37.211Z,3.60
2019-01-26T14:17:06.628Z,3.60
2019-01-26T14:19:51.050Z,3.60
2019-01-26T14:22:19.457Z,3.60
2019-01-26T14:24:53.982Z,3.60
2019-01-26T14:27:32.432Z,3.60
2019-01-26T14:30:08.098Z,3.60
2019-01-26T14:32:42.024Z,3.70
2019-01-26T14:35:25.368Z,3.70
2019-01-26T14:37:57.114Z,3.70
2019-01-26T14:40:39.425Z,3.70
2019-01-26T14:43:19.780Z,3.70
2019-01-26T14:45:50.620Z,3.80
2019-01-26T14:48:19.756Z,3.80
2019-01-26T14:50:52.239Z,3.80
2019-01-26T14:53:21.706Z,3.80
2019-01-26T14:55:55.306Z,3.80
2019-01-26T14:58:34.071Z,3.80
2019-01-26T15:01:06.397Z,3.80
2019-01-26T15:03:38.143Z,3.90
2019-01-26T15:06:07.458Z,3.80
2019-01-26T15:08:38.841Z,3.90
2019-01-26T15:11:08.073Z,3.90
2019-01-26T15:13:44.257Z,4.00
2019-01-26T15:16:22.676Z,3.90
2019-01-26T15:19:05.538Z,4.00
2019-01-26T15:21:39.129Z,4.00
2019-01-26T15:24:16.618Z,4.00
2019-01-26T15:26:57.994Z,3.90
2019-01-26T15:29:37.066Z,4.00
2019-01-26T15:32:16.984Z,3.90
2019-01-26T15:35:04.444Z,3.90
2019-01-26T15:37:36.074Z,4.00
2019-01-26T15:40:06.070Z,4.00
2019-01-26T15:42:44.309Z,4.00
2019-01-26T15:45:20.196Z,4.00
2019-01-26T15:47:49.585Z,4.00
2019-01-26T15:50:19.901Z,4.00
2019-01-26T15:52:51.504Z,4.00
2019-01-26T15:55:29.443Z,4.00
2019-01-26T15:58:24.206Z,4.00
2019-01-26T16:00:54.955Z,4.10
2019-01-26T16:03:25.323Z,4.10
2019-01-26T16:05:54.319Z,4.10
2019-01-26T16:08:26.081Z,4.10
2019-01-26T16:10:56.126Z,4.10
2019-01-26T16:13:25.312Z,4.10
2019-01-26T16:15:54.981Z,4.10
2019-01-26T16:18:32.425Z,4.10
2019-01-26T16:21:01.834Z,4.10
2019-01-26T16:23:38.104Z,4.00
2019-01-26T16:26:19.358Z,4.00
2019-01-26T16:28:51.929Z,4.00
2019-01-26T16:31:21.961Z,4.00
2019-01-26T16:33:57.808Z,4.00
2019-01-26T16:36:29.604Z,3.90
2019-01-26T16:39:00.185Z,3.90
2019-01-26T16:41:31.339Z,3.80
2019-01-26T16:44:05.489Z,3.80
2019-01-26T16:55:03.203Z,3.80
2019-01-26T16:57:36.187Z,3.80
2019-01-26T17:00:08.328Z,3.90
2019-01-26T17:02:45.766Z,3.90
2019-01-26T17:05:18.398Z,3.90
2019-01-26T17:07:49.080Z,3.90
2019-01-26T17:10:22.585Z,3.90
2019-01-26T17:12:59.184Z,3.90
2019-01-26T17:15:34.224Z,3.80
2019-01-26T17:18:15.210Z,3.70
2019-01-26T17:20:50.806Z,3.60
2019-01-26T17:23:48.844Z,3.40
2019-01-26T17:26:32.410Z,3.40
2019-01-26T17:29:04.486Z,3.30
2019-01-26T17:31:39.841Z,3.30
2019-01-26T17:34:09.193Z,3.30
2019-01-26T17:36:38.869Z,3.30
2019-01-26T17:39:12.255Z,3.30
2019-01-26T17:41:42.206Z,3.30
2019-01-26T17:44:12.334Z,3.30
2019-01-26T17:46:41.377Z,3.30
2019-01-26T17:49:11.057Z,3.30
2019-01-26T17:51:40.506Z,3.30
2019-01-26T17:54:10.235Z,3.30
2019-01-26T17:56:45.659Z,3.30
2019-01-26T17:59:23.179Z,3.30
2019-01-26T18:02:06.787Z,3.30
2019-01-26T18:04:44.591Z,3.30
2019-01-26T18:07:20.334Z,3.30
2019-01-26T18:09:52.915Z,3.30
2019-01-26T18:12:23.702Z,3.30
2019-01-26T18:14:58.554Z,3.20
2019-01-26T18:17:29.331Z,3.20
2019-01-26T18:20:01.014Z,3.20
2019-01-26T18:22:30.047Z,3.20
2019-01-26T18:24:59.077Z,3.20
2019-01-26T18:27:28.165Z,3.10
2019-01-26T18:29:58.428Z,3.10
2019-01-26T18:32:27.833Z,3.10
2019-01-26T18:34:58.330Z,3.00
2019-01-26T18:37:27.690Z,2.90
2019-01-26T18:39:57.378Z,2.90
2019-01-26T18:42:26.389Z,2.90
2019-01-26T18:44:55.636Z,2.90
2019-01-26T18:47:25.857Z,2.80
2019-01-26T18:49:54.862Z,2.80
2019-01-26T18:52:23.914Z,2.80
2019-01-26T18:54:54.883Z,2.80
2019-01-26T18:57:25.979Z,2.80
2019-01-26T18:59:55.079Z,2.70
2019-01-26T19:02:24.564Z,2.70
2019-01-26T19:04:59.104Z,2.70
2019-01-26T19:07:28.175Z,2.80
2019-01-26T19:09:58.164Z,2.70
2019-01-26T19:12:28.242Z,2.80
2019-01-26T19:15:03.451Z,2.70
2019-01-26T19:17:36.809Z,2.70
2019-01-26T19:20:06.472Z,2.70
2019-01-26T19:22:36.265Z,2.70
2019-01-26T19:25:06.359Z,2.60
2019-01-26T19:27:35.530Z,2.60
2019-01-26T19:30:06.077Z,2.60
2019-01-26T19:32:35.604Z,2.70
2019-01-26T19:35:05.902Z,2.70
2019-01-26T19:37:35.269Z,2.70
2019-01-26T19:40:05.576Z,2.70
2019-01-26T19:42:34.740Z,2.70
2019-01-26T19:45:04.613Z,2.70
2019-01-26T19:47:33.954Z,2.70
2019-01-26T19:50:04.481Z,2.70
2019-01-26T19:52:34.107Z,2.70
2019-01-26T19:55:03.096Z,2.70
2019-01-26T19:57:32.681Z,2.70
2019-01-26T20:00:01.704Z,2.70
2019-01-26T20:02:33.302Z,2.70
2019-01-26T20:05:02.458Z,2.70
2019-01-26T20:07:37.899Z,2.70
2019-01-26T20:10:10.052Z,2.70
2019-01-26T20:12:39.463Z,2.70
2019-01-26T20:15:14.745Z,2.70
